Latest Coastal Weather Observations for Legendre Island

IDW60701

Issued at 8:02 pm WST Wednesday 27 May 2015 (issued every 10 minutes, with the page automatically refreshed every 10 minutes)

About coastal observations | Map of coastal stations | Coastal observations for WA | Marine services | Other Formats
Station Details ID: 004095 Name: LEGENDRE ISLAND Lat: -20.36 Lon: 116.84 Height: 29.0 m
Data from the previous 72 hours. | See also: Recent months for locations in Western Australia
Date/Time
WST
Temp

°C
Wind Pressure Rain
since 9am
mm
Weather Cloud Vis
km
Sea
Height
m
Swell
Dir
 
Speed
knots
Gust
knots
hPa Trend Height
m
Period
s
Dir
27/08:00pm 20.7 ESE 18 20 1014.9 - - - - - - - - -
27/07:30pm 20.4 ESE 14 18 1015.0 - - - - - - - - -
27/07:00pm 20.0 ESE 15 18 1015.0 - - - - - - - - -
27/06:30pm 19.7 SE 12 16 1014.3 - - - - - - - - -
27/06:00pm 19.6 SE 10 12 1014.5 - - - - - - - - -
27/05:30pm 19.7 SE 9 11 1014.4 - - - - - - - - -
27/05:00pm 19.8 SE 12 18 1013.5 - - - - - - - - -
27/04:30pm 20.0 SE 16 22 1012.3 - - - - - - - - -
27/04:00pm 20.5 ESE 19 22 1012.2 - - - - - - - - -
27/03:30pm 21.0 ESE 18 21 1012.7 - - - - - - - - -
27/03:00pm 21.2 ESE 18 20 1012.5 - - - - - - - - -
27/02:30pm 21.1 ESE 17 20 1012.2 - - - - - - - - -
27/02:00pm 20.7 ESE 18 20 1012.6 - - - - - - - - -
27/01:30pm 20.7 ESE 17 19 1012.5 - - - - - - - - -
27/01:00pm 20.9 ESE 17 20 1013.0 - - - - - - - - -
27/12:30pm 20.2 ESE 17 20 1013.4 - - - - - - - - -
27/12:00pm 19.6 SSE 15 19 1013.9 - - - - - - - - -
27/11:30am 19.8 SE 16 21 1014.1 - - - - - - - - -
27/11:00am 20.1 SE 12 16 1014.8 - - - - - - - - -
27/10:30am 19.8 SE 13 16 1014.8 - - - - - - - - -
27/10:00am 19.9 ESE 15 18 1015.9 - - - - - - - - -
27/09:30am 19.7 SE 16 21 1015.1 - - - - - - - - -
27/09:00am 19.6 SE 14 19 1015.8 - - - - - - - - -
27/08:30am 19.4 SE 15 19 1015.6 - - - - - - - - -
27/08:00am 19.9 ESE 16 20 1015.5 - - - - - - - - -
27/07:30am 19.8 SSE 15 21 1015.0 - - - - - - - - -
27/07:00am 20.2 ESE 14 17 1014.5 - - - - - - - - -
27/06:30am 20.2 SE 14 18 1014.8 - - - - - - - - -
27/06:00am 21.0 ESE 16 19 1014.5 - - - - - - - - -
27/05:30am 21.3 ESE 16 19 1014.4 - - - - - - - - -
27/05:00am 21.9 ESE 15 18 1013.9 - - - - - - - - -
27/04:30am 21.9 ESE 13 16 1014.2 - - - - - - - - -
27/04:00am 22.5 ESE 16 19 1014.2 - - - - - - - - -
27/03:30am 22.7 ESE 17 19 1013.8 - - - - - - - - -
27/03:00am 22.6 E 16 18 1014.3 - - - - - - - - -
27/02:30am 22.6 ESE 17 19 1014.3 - - - - - - - - -
27/02:00am 22.7 ESE 16 18 1015.2 - - - - - - - - -
27/01:30am 22.8 ESE 16 19 1015.1 - - - - - - - - -
27/01:00am 22.8 ESE 17 19 1015.2 - - - - - - - - -
27/12:30am 22.8 ESE 17 20 1015.5 - - - - - - - - -
27/12:00am 22.8 ESE 14 16 1015.8 - - - - - - - - -
 
Date/Time
WST
Temp

°C
Wind Pressure Rain
since 9am
mm
Weather Cloud Vis
km
Sea
Height
m
Swell
Dir
 
Speed
knots
Gust
knots
hPa Trend Height
m
Period
s
Dir
26/11:30pm 22.4 ESE 12 14 1016.0 - - - - - - - - -
26/11:00pm 23.1 ESE 12 17 1016.3 - - - - - - - - -
26/10:30pm 23.7 E 15 17 1016.3 - - - - - - - - -
26/10:00pm 23.8 E 15 17 1016.6 - - - - - - - - -
26/09:30pm 23.9 E 14 16 1016.7 - - - - - - - - -
26/09:00pm 23.6 E 13 15 1016.6 - - - - - - - - -
26/08:30pm 23.5 E 13 15 1016.6 - - - - - - - - -
26/08:00pm 23.5 E 13 15 1016.4 - - - - - - - - -
26/07:30pm 23.5 E 12 13 1016.3 - - - - - - - - -
26/07:00pm 23.3 E 12 13 1015.8 - - - - - - - - -
26/06:30pm 23.2 E 12 14 1015.5 - - - - - - - - -
26/06:00pm 23.0 E 12 13 1015.3 - - - - - - - - -
26/05:30pm 23.1 E 12 14 1015.1 - - - - - - - - -
26/05:00pm 23.3 E 12 14 1015.0 - - - - - - - - -
26/04:30pm 23.6 E 13 14 1014.8 - - - - - - - - -
26/04:00pm 23.8 E 13 15 1014.7 - - - - - - - - -
26/03:30pm 24.1 E 14 16 1014.7 - - - - - - - - -
26/03:00pm 24.0 E 14 15 1014.7 - - - - - - - - -
26/02:30pm 24.3 E 14 17 1014.7 - - - - - - - - -
26/02:00pm 24.2 E 14 17 1014.9 - - - - - - - - -
26/01:30pm 24.3 ESE 13 16 1015.2 - - - - - - - - -
26/01:00pm 24.3 E 15 17 1015.3 - - - - - - - - -
26/12:30pm 24.2 E 15 18 1015.8 - - - - - - - - -
26/12:00pm 23.9 E 17 20 1015.9 - - - - - - - - -
26/11:30am 23.4 E 19 20 1016.2 - - - - - - - - -
26/11:00am 23.1 E 20 22 1016.4 - - - - - - - - -
26/10:30am 23.0 E 20 23 1016.6 - - - - - - - - -
26/10:00am 22.9 ESE 20 22 1017.0 - - - - - - - - -
26/09:30am 22.6 ESE 20 22 1017.0 - - - - - - - - -
26/09:00am 22.1 ESE 18 22 1017.2 - - - - - - - - -
26/08:30am 21.1 E 19 22 1016.7 - - - - - - - - -
26/08:00am 21.0 E 19 22 1016.5 - - - - - - - - -
26/07:30am 20.8 ESE 20 23 1016.2 - - - - - - - - -
26/07:00am 20.6 E 21 24 1015.8 - - - - - - - - -
26/06:30am 20.3 ESE 20 23 1015.8 - - - - - - - - -
26/06:00am 20.5 ESE 20 24 1015.5 - - - - - - - - -
26/05:30am 20.1 ESE 18 24 1015.2 - - - - - - - - -
26/05:00am 20.4 ESE 20 23 1015.4 - - - - - - - - -
26/04:30am 20.5 ESE 20 23 1015.2 - - - - - - - - -
26/04:00am 20.5 ESE 21 24 1015.0 - - - - - - - - -
26/03:30am 20.6 ESE 21 25 1015.0 - - - - - - - - -
26/03:00am 20.6 ESE 19 23 1015.1 - - - - - - - - -
26/02:30am 20.6 ESE 19 23 1015.1 - - - - - - - - -
26/02:00am 20.8 ESE 20 23 1015.6 - - - - - - - - -
26/01:30am 20.7 E 21 25 1015.6 - - - - - - - - -
26/01:00am 20.6 ESE 21 24 1015.7 - - - - - - - - -
26/12:30am 20.2 ESE 17 20 1016.1 - - - - - - - - -
26/12:00am 20.1 ESE 15 20 1016.5 - - - - - - - - -
 
Date/Time
WST
Temp

°C
Wind Pressure Rain
since 9am
mm
Weather Cloud Vis
km
Sea
Height
m
Swell
Dir
 
Speed
knots
Gust
knots
hPa Trend Height
m
Period
s
Dir
25/11:30pm 20.2 ESE 16 21 1016.8 - - - - - - - - -
25/11:00pm 20.7 ESE 19 24 1016.5 - - - - - - - - -
25/10:30pm 20.5 ESE 21 24 1016.5 - - - - - - - - -
25/10:00pm 20.6 ESE 22 25 1016.3 - - - - - - - - -
25/09:30pm 20.4 ESE 20 25 1016.4 - - - - - - - - -
25/09:00pm 19.8 ESE 16 21 1016.6 - - - - - - - - -
25/08:30pm 19.7 ESE 19 22 1016.4 - - - - - - - - -
25/08:00pm 19.6 ESE 18 21 1016.3 - - - - - - - - -
25/07:30pm 19.6 ESE 17 23 1015.9 - - - - - - - - -
25/07:00pm 20.2 ESE 19 26 1015.4 - - - - - - - - -
25/06:30pm 20.6 E 21 25 1015.0 - - - - - - - - -
25/06:00pm 20.6 E 21 24 1014.8 - - - - - - - - -
25/05:30pm 20.4 ESE 22 25 1014.5 - - - - - - - - -
25/05:00pm 20.4 ESE 22 26 1014.4 - - - - - - - - -
25/04:30pm 20.6 E 23 27 1014.2 - - - - - - - - -
25/04:00pm 20.4 E 23 27 1014.2 - - - - - - - - -
25/03:30pm 20.2 ESE 22 27 1014.1 - - - - - - - - -
25/03:00pm 20.2 ESE 22 25 1014.0 - - - - - - - - -
25/02:30pm 19.8 ESE 22 27 1013.9 - - - - - - - - -
25/02:00pm 19.7 ESE 22 27 1014.0 - - - - - - - - -
25/01:30pm 19.6 ESE 22 26 1014.4 - - - - - - - - -
25/01:00pm 19.4 E 22 27 1014.5 - - - - - - - - -
25/12:30pm 19.2 E 22 26 1015.1 - - - - - - - - -
25/12:00pm 18.9 ESE 22 27 1015.4 - - - - - - - - -
25/11:30am 18.4 ESE 23 29 1015.7 - - - - - - - - -
25/11:00am 18.3 ESE 26 31 1015.9 - - - - - - - - -
25/10:30am 17.8 ESE 26 30 1016.0 - - - - - - - - -
25/10:00am 17.8 ESE 28 33 1016.4 - - - - - - - - -
25/09:30am 18.5 E 29 33 1016.6 - - - - - - - - -
25/09:00am 18.7 E 31 36 1015.9 - - - - - - - - -
25/08:30am 18.8 E 29 34 1015.8 - - - - - - - - -
25/08:00am 19.2 E 29 34 1015.7 - - - - - - - - -
25/07:30am 19.1 E 28 33 1015.5 - - - - - - - - -
25/07:00am 19.8 E 29 33 1015.0 - - - - - - - - -
25/06:30am 19.4 E 28 34 1014.9 - - - - - - - - -
25/06:00am 19.9 E 30 35 1014.0 - - - - - - - - -
25/05:30am 20.0 E 27 33 1014.2 - - - - - - - - -
25/05:00am 19.4 E 26 31 1013.9 - - - - - - - - -
25/04:30am 19.8 E 27 33 1013.4 - - - - - - - - -
25/04:00am 20.0 E 28 31 1013.6 - - - - - - - - -
25/03:30am 20.1 E 26 33 1013.7 - - - - - - - - -
25/03:00am 19.7 E 27 32 1013.7 - - - - - - - - -
25/02:30am 20.2 E 25 29 1014.5 - - - - - - - - -
25/02:00am 19.7 E 27 31 1014.3 - - - - - - - - -
25/01:30am 19.6 E 26 31 1014.5 - - - - - - - - -
25/01:00am 19.9 E 24 28 1014.5 - - - - - - - - -
25/12:30am 20.2 E 25 29 1014.5 - - - - - - - - -
25/12:00am 20.4 E 25 29 1014.4 - - - - - - - - -
 
Date/Time
WST
Temp

°C
Wind Pressure Rain
since 9am
mm
Weather Cloud Vis
km
Sea
Height
m
Swell
Dir
 
Speed
knots
Gust
knots
hPa Trend Height
m
Period
s
Dir
24/11:30pm 20.4 E 24 28 1015.1 - - - - - - - - -
24/11:00pm 21.0 E 24 29 1015.1 - - - - - - - - -
24/10:30pm 20.6 E 23 27 1015.3 - - - - - - - - -
24/10:00pm 20.7 E 24 28 1014.8 - - - - - - - - -
24/09:30pm 21.1 E 21 25 1015.3 - - - - - - - - -
24/09:00pm 21.7 E 20 23 1015.3 - - - - - - - - -
24/08:30pm 21.5 E 20 23 1015.3 - - - - - - - - -

Other Formats:

Comma delimited format used in spreadsheet applications
http://www.bom.gov.au/fwo/IDW60701/IDW60701.94307.axf

JavaScript Object Notation format (JSON) in row-major order
http://www.bom.gov.au/fwo/IDW60701/IDW60701.94307.json